You are not logged in, Click here to log in
機場資訊:LIRF Welcome to Taiwan Airways 台灣虛擬航空
ICAO: LIRF Country: 義大利拉齊奧大區羅馬省菲烏米奇諾
Latitude: 41.7999 Longitude: 12.2462
Total Arrivals: 14 Total Departures: 13
Latest Arrival: AZ719 (LGAV-LIRF)Stone. Chang Latest Departure: FR6984D (LIRF-EDLW)Stone. Chang
Scenery:
METAR : LIRF 171320Z 27008KT CAVOK 22/12 Q1019 NOSIG

羅馬-菲烏米奇諾機場